sensor_id;sensor_type;location;lat;lon;timestamp;pressure;altitude;pressure_sealevel;temperature;humidity
10638;BME280;47007;49.252;8.904;2023-02-19T00:00:23;100281.31;;;10.24;100.00
10638;BME280;47007;49.252;8.904;2023-02-19T00:01:13;100286.63;;;10.24;100.00
10638;BME280;47007;49.252;8.904;2023-02-19T00:01:56;100287.78;;;10.21;100.00
10638;BME280;47007;49.252;8.904;2023-02-19T00:02:37;100283.13;;;10.15;100.00
10638;BME280;47007;49.252;8.904;2023-02-19T00:03:19;100286.44;;;10.17;100.00
10638;BME280;47007;49.252;8.904;2023-02-19T00:04:06;100283.47;;;10.12;100.00
10638;BME280;47007;49.252;8.904;2023-02-19T00:04:48;100280.00;;;10.12;100.00
10638;BME280;47007;49.252;8.904;2023-02-19T00:05:30;100288.13;;;10.10;100.00
10638;BME280;47007;49.252;8.904;2023-02-19T00:06:11;100290.94;;;10.08;100.00
10638;BME280;47007;49.252;8.904;2023-02-19T00:06:53;100288.44;;;10.07;100.00
10638;BME280;47007;49.252;8.904;2023-02-19T00:07:35;100285.78;;;10.07;100.00
10638;BME280;47007;49.252;8.904;2023-02-19T00:08:17;100290.94;;;10.08;100.00
10638;BME280;47007;49.252;8.904;2023-02-19T00:08:59;100286.47;;;10.09;100.00
10638;BME280;47007;49.252;8.904;2023-02-19T00:09:41;100279.34;;;10.01;100.00
10638;BME280;47007;49.252;8.904;2023-02-19T00:10:22;100289.44;;;10.06;100.00
10638;BME280;47007;49.252;8.904;2023-02-19T00:11:06;100286.28;;;10.02;100.00
10638;BME280;47007;49.252;8.904;2023-02-19T00:11:48;100289.94;;;10.01;100.00
10638;BME280;47007;49.252;8.904;2023-02-19T00:12:30;100278.88;;;9.98;100.00
10638;BME280;47007;49.252;8.904;2023-02-19T00:13:12;100289.94;;;10.01;100.00
10638;BME280;47007;49.252;8.904;2023-02-19T00:13:56;100281.31;;;10.07;100.00
10638;BME280;47007;49.252;8.904;2023-02-19T00:14:38;100274.22;;;10.00;100.00
10638;BME280;47007;49.252;8.904;2023-02-19T00:15:20;100264.13;;;9.95;100.00
10638;BME280;47007;49.252;8.904;2023-02-19T00:16:09;100271.41;;;9.93;100.00
10638;BME280;47007;49.252;8.904;2023-02-19T00:16:52;100297.06;;;10.01;100.00
10638;BME280;47007;49.252;8.904;2023-02-19T00:17:34;100294.59;;;9.99;100.00
10638;BME280;47007;49.252;8.904;2023-02-19T00:18:16;100292.78;;;10.00;100.00
10638;BME280;47007;49.252;8.904;2023-02-19T00:18:58;100288.31;;;10.00;100.00
10638;BME280;47007;49.252;8.904;2023-02-19T00:19:40;100264.47;;;9.84;100.00
10638;BME280;47007;49.252;8.904;2023-02-19T00:20:22;100284.00;;;9.91;100.00
10638;BME280;47007;49.252;8.904;2023-02-19T00:21:04;100255.56;;;9.69;100.00
10638;BME280;47007;49.252;8.904;2023-02-19T00:21:49;100289.81;;;9.87;100.00
10638;BME280;47007;49.252;8.904;2023-02-19T00:22:31;100283.03;;;9.84;100.00
10638;BME280;47007;49.252;8.904;2023-02-19T00:23:13;100277.06;;;9.82;100.00
10638;BME280;47007;49.252;8.904;2023-02-19T00:23:57;100254.59;;;9.62;100.00
10638;BME280;47007;49.252;8.904;2023-02-19T00:24:40;100265.97;;;9.70;100.00
10638;BME280;47007;49.252;8.904;2023-02-19T00:25:22;100248.09;;;9.64;100.00
10638;BME280;47007;49.252;8.904;2023-02-19T00:26:09;100272.44;;;9.76;100.00
10638;BME280;47007;49.252;8.904;2023-02-19T00:27:02;100273.09;;;9.78;100.00
10638;BME280;47007;49.252;8.904;2023-02-19T00:27:43;100242.66;;;9.66;100.00
10638;BME280;47007;49.252;8.904;2023-02-19T00:28:25;100247.59;;;9.77;100.00
10638;BME280;47007;49.252;8.904;2023-02-19T00:29:11;100235.88;;;9.71;100.00
10638;BME280;47007;49.252;8.904;2023-02-19T00:29:53;100219.81;;;9.65;100.00
10638;BME280;47007;49.252;8.904;2023-02-19T00:30:35;100246.94;;;9.83;100.00
10638;BME280;47007;49.252;8.904;2023-02-19T00:31:28;100250.75;;;9.81;100.00
10638;BME280;47007;49.252;8.904;2023-02-19T00:32:13;100209.75;;;9.60;100.00
10638;BME280;47007;49.252;8.904;2023-02-19T00:32:55;100230.94;;;9.60;100.00
10638;BME280;47007;49.252;8.904;2023-02-19T00:33:36;100254.25;;;9.73;100.00
10638;BME280;47007;49.252;8.904;2023-02-19T00:34:18;100262.50;;;9.70;100.00
10638;BME280;47007;49.252;8.904;2023-02-19T00:35:00;100267.13;;;9.68;100.00
10638;BME280;47007;49.252;8.904;2023-02-19T00:35:42;100263.34;;;9.62;100.00
10638;BME280;47007;49.252;8.904;2023-02-19T00:36:24;100257.72;;;9.57;100.00
10638;BME280;47007;49.252;8.904;2023-02-19T00:37:06;100266.63;;;9.64;100.00
10638;BME280;47007;49.252;8.904;2023-02-19T00:37:51;100259.06;;;9.61;100.00
10638;BME280;47007;49.252;8.904;2023-02-19T00:38:37;100239.69;;;9.53;100.00
10638;BME280;47007;49.252;8.904;2023-02-19T00:39:19;100254.59;;;9.62;100.00
10638;BME280;47007;49.252;8.904;2023-02-19T00:40:01;100230.91;;;9.52;100.00
10638;BME280;47007;49.252;8.904;2023-02-19T00:40:43;100242.66;;;9.58;100.00
10638;BME280;47007;49.252;8.904;2023-02-19T00:41:25;100231.25;;;9.57;100.00
10638;BME280;47007;49.252;8.904;2023-02-19T00:42:07;100226.28;;;9.54;100.00
10638;BME280;47007;49.252;8.904;2023-02-19T00:42:49;100225.31;;;9.47;100.00
10638;BME280;47007;49.252;8.904;2023-02-19T00:43:30;100243.50;;;9.50;100.00
10638;BME280;47007;49.252;8.904;2023-02-19T00:44:13;100228.75;;;9.40;100.00
10638;BME280;47007;49.252;8.904;2023-02-19T00:44:55;100250.28;;;9.45;100.00
10638;BME280;47007;49.252;8.904;2023-02-19T00:45:36;100257.72;;;9.41;100.00
10638;BME280;47007;49.252;8.904;2023-02-19T00:46:24;100271.59;;;9.43;100.00
10638;BME280;47007;49.252;8.904;2023-02-19T00:47:06;100256.56;;;9.35;100.00
10638;BME280;47007;49.252;8.904;2023-02-19T00:47:47;100268.44;;;9.40;100.00
10638;BME280;47007;49.252;8.904;2023-02-19T00:48:29;100269.47;;;9.39;100.00
10638;BME280;47007;49.252;8.904;2023-02-19T00:49:21;100249.28;;;9.29;100.00
10638;BME280;47007;49.252;8.904;2023-02-19T00:50:03;100268.97;;;9.35;100.00
10638;BME280;47007;49.252;8.904;2023-02-19T00:50:45;100271.44;;;9.36;100.00
10638;BME280;47007;49.252;8.904;2023-02-19T00:51:29;100268.81;;;9.36;100.00
10638;BME280;47007;49.252;8.904;2023-02-19T00:52:11;100272.28;;;9.37;100.00
10638;BME280;47007;49.252;8.904;2023-02-19T00:52:53;100265.50;;;9.26;100.00
10638;BME280;47007;49.252;8.904;2023-02-19T00:53:35;100279.03;;;9.31;100.00
10638;BME280;47007;49.252;8.904;2023-02-19T00:54:17;100273.75;;;9.31;100.00
10638;BME280;47007;49.252;8.904;2023-02-19T00:54:59;100262.50;;;9.29;100.00
10638;BME280;47007;49.252;8.904;2023-02-19T00:55:41;100239.53;;;9.22;100.00
10638;BME280;47007;49.252;8.904;2023-02-19T00:56:23;100248.59;;;9.27;100.00
10638;BME280;47007;49.252;8.904;2023-02-19T00:57:05;100202.78;;;9.02;100.00
10638;BME280;47007;49.252;8.904;2023-02-19T00:57:47;100237.72;;;9.22;100.00
10638;BME280;47007;49.252;8.904;2023-02-19T00:58:29;100219.34;;;9.13;100.00
10638;BME280;47007;49.252;8.904;2023-02-19T00:59:11;100249.28;;;9.21;100.00
10638;BME280;47007;49.252;8.904;2023-02-19T00:59:52;100256.06;;;9.24;100.00
10638;BME280;47007;49.252;8.904;2023-02-19T01:00:34;100272.91;;;9.23;100.00
10638;BME280;47007;49.252;8.904;2023-02-19T01:01:16;100274.06;;;9.20;100.00
10638;BME280;47007;49.252;8.904;2023-02-19T01:01:58;100272.91;;;9.23;100.00
10638;BME280;47007;49.252;8.904;2023-02-19T01:02:40;100283.34;;;9.24;100.00
10638;BME280;47007;49.252;8.904;2023-02-19T01:03:22;100250.75;;;9.08;100.00
10638;BME280;47007;49.252;8.904;2023-02-19T01:04:04;100271.59;;;9.19;100.00
10638;BME280;47007;49.252;8.904;2023-02-19T01:04:47;100250.25;;;9.12;100.00
10638;BME280;47007;49.252;8.904;2023-02-19T01:05:29;100283.66;;;9.29;100.00
10638;BME280;47007;49.252;8.904;2023-02-19T01:06:13;100278.06;;;9.24;100.00
10638;BME280;47007;49.252;8.904;2023-02-19T01:06:58;100274.41;;;9.25;100.00
10638;BME280;47007;49.252;8.904;2023-02-19T01:07:40;100268.31;;;9.25;100.00
10638;BME280;47007;49.252;8.904;2023-02-19T01:08:21;100260.00;;;9.20;100.00
10638;BME280;47007;49.252;8.904;2023-02-19T01:09:04;100260.69;;;9.22;100.00
10638;BME280;47007;49.252;8.904;2023-02-19T01:09:46;100258.19;;;9.28;100.00
10638;BME280;47007;49.252;8.904;2023-02-19T01:10:28;100258.38;;;9.35;100.00
10638;BME280;47007;49.252;8.904;2023-02-19T01:11:10;100246.47;;;9.31;100.00
10638;BME280;47007;49.252;8.904;2023-02-19T01:11:53;100249.63;;;9.34;100.00
10638;BME280;47007;49.252;8.904;2023-02-19T01:12:34;100257.41;;;9.36;100.00
10638;BME280;47007;49.252;8.904;2023-02-19T01:13:17;100254.06;;;9.34;100.00
10638;BME280;47007;49.252;8.904;2023-02-19T01:14:00;100250.94;;;9.30;100.00
10638;BME280;47007;49.252;8.904;2023-02-19T01:14:42;100234.25;;;9.14;100.00
10638;BME280;47007;49.252;8.904;2023-02-19T01:15:24;100180.97;;;8.84;100.00
10638;BME280;47007;49.252;8.904;2023-02-19T01:16:14;100251.44;;;9.26;100.00
10638;BME280;47007;49.252;8.904;2023-02-19T01:16:56;100227.63;;;9.10;100.00
10638;BME280;47007;49.252;8.904;2023-02-19T01:17:38;100250.78;;;9.24;100.00
10638;BME280;47007;49.252;8.904;2023-02-19T01:18:20;100251.41;;;9.18;100.00
10638;BME280;47007;49.252;8.904;2023-02-19T01:19:01;100243.63;;;9.16;100.00
10638;BME280;47007;49.252;8.904;2023-02-19T01:19:43;100239.84;;;9.11;100.00
10638;BME280;47007;49.252;8.904;2023-02-19T01:20:25;100255.56;;;9.20;100.00
10638;BME280;47007;49.252;8.904;2023-02-19T01:21:13;100246.13;;;9.18;100.00
10638;BME280;47007;49.252;8.904;2023-02-19T01:21:55;100240.69;;;9.11;100.00
10638;BME280;47007;49.252;8.904;2023-02-19T01:22:36;100258.50;;;9.17;100.00
10638;BME280;47007;49.252;8.904;2023-02-19T01:23:20;100252.09;;;9.12;100.00
10638;BME280;47007;49.252;8.904;2023-02-19T01:24:01;100263.97;;;9.16;100.00
10638;BME280;47007;49.252;8.904;2023-02-19T01:24:43;100247.59;;;9.04;100.00
10638;BME280;47007;49.252;8.904;2023-02-19T01:25:25;100255.41;;;9.14;100.00
10638;BME280;47007;49.252;8.904;2023-02-19T01:26:08;100238.00;;;9.03;100.00
10638;BME280;47007;49.252;8.904;2023-02-19T01:26:51;100242.31;;;9.04;100.00
10638;BME280;47007;49.252;8.904;2023-02-19T01:27:33;100254.41;;;9.15;100.00
10638;BME280;47007;49.252;8.904;2023-02-19T01:28:15;100257.22;;;9.13;100.00
10638;BME280;47007;49.252;8.904;2023-02-19T01:28:58;100255.41;;;9.14;100.00
10638;BME280;47007;49.252;8.904;2023-02-19T01:29:41;100262.34;;;9.15;100.00
10638;BME280;47007;49.252;8.904;2023-02-19T01:30:23;100232.91;;;9.02;100.00
10638;BME280;47007;49.252;8.904;2023-02-19T01:31:06;100243.28;;;9.03;100.00
10638;BME280;47007;49.252;8.904;2023-02-19T01:31:49;100249.44;;;9.12;100.00
10638;BME280;47007;49.252;8.904;2023-02-19T01:32:31;100248.44;;;9.13;100.00
10638;BME280;47007;49.252;8.904;2023-02-19T01:33:12;100254.06;;;9.10;100.00
10638;BME280;47007;49.252;8.904;2023-02-19T01:33:57;100262.34;;;9.15;100.00
10638;BME280;47007;49.252;8.904;2023-02-19T01:34:39;100253.38;;;9.16;100.00
10638;BME280;47007;49.252;8.904;2023-02-19T01:35:21;100262.00;;;9.18;100.00
10638;BME280;47007;49.252;8.904;2023-02-19T01:36:04;100248.09;;;9.08;100.00
10638;BME280;47007;49.252;8.904;2023-02-19T01:36:46;100264.31;;;9.21;100.00
10638;BME280;47007;49.252;8.904;2023-02-19T01:37:28;100253.06;;;9.19;100.00
10638;BME280;47007;49.252;8.904;2023-02-19T01:38:10;100266.13;;;9.20;100.00
10638;BME280;47007;49.252;8.904;2023-02-19T01:38:51;100253.75;;;9.21;100.00
10638;BME280;47007;49.252;8.904;2023-02-19T01:39:33;100269.59;;;9.21;100.00
10638;BME280;47007;49.252;8.904;2023-02-19T01:40:15;100263.31;;;9.22;100.00
10638;BME280;47007;49.252;8.904;2023-02-19T01:40:59;100248.94;;;9.16;100.00
10638;BME280;47007;49.252;8.904;2023-02-19T01:41:42;100256.06;;;9.24;100.00
10638;BME280;47007;49.252;8.904;2023-02-19T01:42:23;100253.41;;;9.24;100.00
10638;BME280;47007;49.252;8.904;2023-02-19T01:43:15;100250.78;;;9.24;100.00
10638;BME280;47007;49.252;8.904;2023-02-19T01:45:30;100262.66;;;9.28;100.00
10638;BME280;47007;49.252;8.904;2023-02-19T01:46:12;100257.72;;;9.25;100.00
10638;BME280;47007;49.252;8.904;2023-02-19T01:46:54;100242.16;;;9.14;100.00
10638;BME280;47007;49.252;8.904;2023-02-19T01:47:38;100232.59;;;9.13;100.00
10638;BME280;47007;49.252;8.904;2023-02-19T01:48:23;100253.91;;;9.19;100.00
10638;BME280;47007;49.252;8.904;2023-02-19T01:49:30;100263.31;;;9.30;100.00
10638;BME280;47007;49.252;8.904;2023-02-19T01:50:12;100255.06;;;9.25;100.00
10638;BME280;47007;49.252;8.904;2023-02-19T01:51:16;100241.81;;;9.17;100.00
10638;BME280;47007;49.252;8.904;2023-02-19T01:52:10;100258.38;;;9.27;100.00
10638;BME280;47007;49.252;8.904;2023-02-19T01:52:54;100251.41;;;9.18;100.00
10638;BME280;47007;49.252;8.904;2023-02-19T01:53:39;100244.31;;;9.18;100.00
10638;BME280;47007;49.252;8.904;2023-02-19T01:54:24;100244.16;;;9.12;100.00
10638;BME280;47007;49.252;8.904;2023-02-19T01:55:10;100237.84;;;9.05;100.00
10638;BME280;47007;49.252;8.904;2023-02-19T01:55:56;100218.50;;;8.88;100.00
10638;BME280;47007;49.252;8.904;2023-02-19T01:56:40;100229.22;;;8.94;100.00
10638;BME280;47007;49.252;8.904;2023-02-19T01:57:26;100202.28;;;8.75;100.00
10638;BME280;47007;49.252;8.904;2023-02-19T01:58:09;100230.84;;;8.79;100.00
10638;BME280;47007;49.252;8.904;2023-02-19T01:58:52;100208.81;;;8.54;100.00
10638;BME280;47007;49.252;8.904;2023-02-19T01:59:34;100240.41;;;8.72;100.00
10638;BME280;47007;49.252;8.904;2023-02-19T02:00:16;100239.75;;;8.70;100.00
10638;BME280;47007;49.252;8.904;2023-02-19T02:01:00;100237.41;;;8.59;100.00
10638;BME280;47007;49.252;8.904;2023-02-19T02:01:42;100239.72;;;8.62;100.00
10638;BME280;47007;49.252;8.904;2023-02-19T02:02:24;100223.00;;;8.45;100.00
10638;BME280;47007;49.252;8.904;2023-02-19T02:03:08;100229.41;;;8.43;100.00
10638;BME280;47007;49.252;8.904;2023-02-19T02:03:49;100239.34;;;8.49;100.00
10638;BME280;47007;49.252;8.904;2023-02-19T02:04:32;100239.69;;;8.54;100.00
10638;BME280;47007;49.252;8.904;2023-02-19T02:06:34;100237.34;;;8.43;100.00
10638;BME280;47007;49.252;8.904;2023-02-19T02:07:18;100262.16;;;8.50;100.00
10638;BME280;47007;49.252;8.904;2023-02-19T02:08:19;100253.56;;;8.48;100.00
10638;BME280;47007;49.252;8.904;2023-02-19T02:09:23;100266.91;;;8.46;100.00
10638;BME280;47007;49.252;8.904;2023-02-19T02:10:25;100268.72;;;8.46;100.00
10638;BME280;47007;49.252;8.904;2023-02-19T02:11:06;100246.50;;;8.30;100.00
10638;BME280;47007;49.252;8.904;2023-02-19T02:11:51;100266.09;;;8.46;100.00
10638;BME280;47007;49.252;8.904;2023-02-19T02:12:34;100274.16;;;8.44;100.00
10638;BME280;47007;49.252;8.904;2023-02-19T02:13:18;100258.44;;;8.35;100.00
10638;BME280;47007;49.252;8.904;2023-02-19T02:13:59;100281.94;;;8.46;100.00
10638;BME280;47007;49.252;8.904;2023-02-19T02:14:46;100267.06;;;8.45;100.00
10638;BME280;47007;49.252;8.904;2023-02-19T02:15:35;100235.81;;;8.32;100.00
10638;BME280;47007;49.252;8.904;2023-02-19T02:20:44;100241.94;;;8.41;100.00
10638;BME280;47007;49.252;8.904;2023-02-19T02:22:58;100264.94;;;8.48;100.00
10638;BME280;47007;49.252;8.904;2023-02-19T02:30:45;100255.38;;;8.55;100.00
10638;BME280;47007;49.252;8.904;2023-02-19T02:31:32;100244.63;;;8.49;100.00
10638;BME280;47007;49.252;8.904;2023-02-19T02:32:24;100249.28;;;8.55;100.00
10638;BME280;47007;49.252;8.904;2023-02-19T02:33:18;100251.75;;;8.56;100.00
10638;BME280;47007;49.252;8.904;2023-02-19T02:34:18;100204.97;;;8.41;100.00
10638;BME280;47007;49.252;8.904;2023-02-19T02:35:09;100237.41;;;8.59;100.00
10638;BME280;47007;49.252;8.904;2023-02-19T02:36:04;100229.63;;;8.57;100.00
10638;BME280;47007;49.252;8.904;2023-02-19T02:36:50;100241.25;;;8.64;100.00
10638;BME280;47007;49.252;8.904;2023-02-19T02:37:36;100235.75;;;8.58;100.00
10638;BME280;47007;49.252;8.904;2023-02-19T02:38:24;100235.59;;;8.68;100.00
10638;BME280;47007;49.252;8.904;2023-02-19T02:39:11;100238.91;;;8.70;100.00
10638;BME280;47007;49.252;8.904;2023-02-19T02:39:56;100227.22;;;8.72;100.00
10638;BME280;47007;49.252;8.904;2023-02-19T02:40:42;100228.03;;;8.73;100.00
10638;BME280;47007;49.252;8.904;2023-02-19T02:41:26;100229.88;;;8.80;100.00
10638;BME280;47007;49.252;8.904;2023-02-19T02:42:08;100231.38;;;8.83;100.00
10638;BME280;47007;49.252;8.904;2023-02-19T02:43:20;100226.06;;;8.83;100.00
10638;BME280;47007;49.252;8.904;2023-02-19T02:44:02;100208.19;;;8.69;100.00
10638;BME280;47007;49.252;8.904;2023-02-19T02:44:44;100209.22;;;8.76;100.00
10638;BME280;47007;49.252;8.904;2023-02-19T02:45:48;100225.09;;;8.92;100.00
10638;BME280;47007;49.252;8.904;2023-02-19T02:46:45;100223.94;;;8.94;100.00
10638;BME280;47007;49.252;8.904;2023-02-19T02:47:28;100209.06;;;8.85;100.00
10638;BME280;47007;49.252;8.904;2023-02-19T02:48:40;100189.22;;;8.73;100.00
10638;BME280;47007;49.252;8.904;2023-02-19T02:49:24;100217.66;;;8.87;100.00
10638;BME280;47007;49.252;8.904;2023-02-19T02:50:08;100205.94;;;8.90;100.00
10638;BME280;47007;49.252;8.904;2023-02-19T02:50:59;100223.63;;;8.97;100.00
10638;BME280;47007;49.252;8.904;2023-02-19T02:51:51;100218.34;;;8.97;100.00
10638;BME280;47007;49.252;8.904;2023-02-19T02:52:39;100212.38;;;8.95;100.00
10638;BME280;47007;49.252;8.904;2023-02-19T02:53:52;100202.78;;;8.94;100.00
10638;BME280;47007;49.252;8.904;2023-02-19T02:54:53;100198.84;;;8.98;100.00
10638;BME280;47007;49.252;8.904;2023-02-19T02:55:48;100209.41;;;8.98;100.00
10638;BME280;47007;49.252;8.904;2023-02-19T02:56:33;100205.28;;;8.96;100.00
10638;BME280;47007;49.252;8.904;2023-02-19T02:57:17;100195.53;;;8.88;100.00
10638;BME280;47007;49.252;8.904;2023-02-19T02:58:04;100201.47;;;8.90;100.00
10638;BME280;47007;49.252;8.904;2023-02-19T02:58:48;100185.13;;;8.87;100.00
10638;BME280;47007;49.252;8.904;2023-02-19T02:59:34;100173.53;;;8.80;100.00
10638;BME280;47007;49.252;8.904;2023-02-19T03:00:17;100173.38;;;8.73;100.00
10638;BME280;47007;49.252;8.904;2023-02-19T03:01:18;100193.53;;;8.90;100.00
10638;BME280;47007;49.252;8.904;2023-02-19T03:02:42;100186.44;;;8.91;100.00
10638;BME280;47007;49.252;8.904;2023-02-19T03:03:29;100181.97;;;8.91;100.00
10638;BME280;47007;49.252;8.904;2023-02-19T03:04:18;100173.72;;;8.86;100.00
10638;BME280;47007;49.252;8.904;2023-02-19T03:05:06;100185.44;;;8.92;100.00
10638;BME280;47007;49.252;8.904;2023-02-19T03:06:10;100187.25;;;8.91;100.00
10638;BME280;47007;49.252;8.904;2023-02-19T03:06:54;100166.28;;;8.82;100.00
10638;BME280;47007;49.252;8.904;2023-02-19T03:07:51;100176.69;;;8.91;100.00
10638;BME280;47007;49.252;8.904;2023-02-19T03:08:48;100173.06;;;8.84;100.00
10638;BME280;47007;49.252;8.904;2023-02-19T03:09:39;100180.97;;;8.84;100.00
10638;BME280;47007;49.252;8.904;2023-02-19T03:10:32;100165.75;;;8.78;100.00
10638;BME280;47007;49.252;8.904;2023-02-19T03:11:16;100186.28;;;8.92;100.00
10638;BME280;47007;49.252;8.904;2023-02-19T03:12:18;100172.06;;;8.85;100.00
10638;BME280;47007;49.252;8.904;2023-02-19T03:13:25;100168.44;;;8.86;100.00
10638;BME280;47007;49.252;8.904;2023-02-19T03:14:41;100179.84;;;8.95;100.00
10638;BME280;47007;49.252;8.904;2023-02-19T03:15:49;100179.16;;;8.93;100.00
10638;BME280;47007;49.252;8.904;2023-02-19T03:17:09;100184.97;;;8.96;100.00
10638;BME280;47007;49.252;8.904;2023-02-19T03:18:13;100152.91;;;8.83;100.00
10638;BME280;47007;49.252;8.904;2023-02-19T03:19:18;100173.56;;;8.88;100.00
10638;BME280;47007;49.252;8.904;2023-02-19T03:20:04;100183.81;;;8.99;100.00
10638;BME280;47007;49.252;8.904;2023-02-19T03:20:51;100196.03;;;9.00;100.00
10638;BME280;47007;49.252;8.904;2023-02-19T03:21:37;100169.41;;;8.85;100.00
10638;BME280;47007;49.252;8.904;2023-02-19T03:22:25;100179.31;;;8.91;100.00
10638;BME280;47007;49.252;8.904;2023-02-19T03:23:09;100169.75;;;8.90;100.00
10638;BME280;47007;49.252;8.904;2023-02-19T03:23:52;100178.34;;;8.92;100.00
10638;BME280;47007;49.252;8.904;2023-02-19T03:25:20;100167.59;;;8.86;100.00
10638;BME280;47007;49.252;8.904;2023-02-19T03:26:20;100174.72;;;8.93;100.00
10638;BME280;47007;49.252;8.904;2023-02-19T03:27:06;100156.22;;;8.85;100.00
10638;BME280;47007;49.252;8.904;2023-02-19T03:27:56;100190.91;;;8.98;100.00
10638;BME280;47007;49.252;8.904;2023-02-19T03:28:40;100188.28;;;8.98;100.00
10638;BME280;47007;49.252;8.904;2023-02-19T03:29:43;100179.00;;;8.94;100.00
10638;BME280;47007;49.252;8.904;2023-02-19T03:30:32;100187.28;;;8.99;100.00
10638;BME280;47007;49.252;8.904;2023-02-19T03:31:18;100181.16;;;8.99;100.00
10638;BME280;47007;49.252;8.904;2023-02-19T03:32:16;100189.94;;;8.99;100.00
10638;BME280;47007;49.252;8.904;2023-02-19T03:33:00;100189.94;;;8.99;100.00
10638;BME280;47007;49.252;8.904;2023-02-19T03:33:55;100192.56;;;8.99;100.00
10638;BME280;47007;49.252;8.904;2023-02-19T03:34:47;100166.31;;;8.90;100.00
10638;BME280;47007;49.252;8.904;2023-02-19T03:35:37;100195.22;;;8.99;100.00
10638;BME280;47007;49.252;8.904;2023-02-19T03:36:22;100178.34;;;8.92;100.00
10638;BME280;47007;49.252;8.904;2023-02-19T03:37:15;100161.66;;;8.84;100.00
10638;BME280;47007;49.252;8.904;2023-02-19T03:39:10;100188.78;;;9.02;100.00
10638;BME280;47007;49.252;8.904;2023-02-19T03:39:54;100176.88;;;8.90;100.00
10638;BME280;47007;49.252;8.904;2023-02-19T03:40:44;100185.44;;;8.92;100.00
10638;BME280;47007;49.252;8.904;2023-02-19T03:43:44;100210.25;;;8.99;100.00
10638;BME280;47007;49.252;8.904;2023-02-19T03:44:39;100192.56;;;8.99;100.00
10638;BME280;47007;49.252;8.904;2023-02-19T03:47:20;100200.97;;;9.03;100.00
10638;BME280;47007;49.252;8.904;2023-02-19T03:48:21;100200.00;;;9.04;100.00
10638;BME280;47007;49.252;8.904;2023-02-19T03:49:16;100194.06;;;9.02;100.00
10638;BME280;47007;49.252;8.904;2023-02-19T03:50:17;100180.31;;;8.82;100.00
10638;BME280;47007;49.252;8.904;2023-02-19T03:51:25;100184.97;;;8.96;100.00
10638;BME280;47007;49.252;8.904;2023-02-19T03:52:41;100193.72;;;8.97;100.00
10638;BME280;47007;49.252;8.904;2023-02-19T03:54:21;100193.72;;;8.97;100.00
10638;BME280;47007;49.252;8.904;2023-02-19T03:55:17;100203.47;;;8.96;100.00
10638;BME280;47007;49.252;8.904;2023-02-19T03:56:21;100195.53;;;8.88;100.00
10638;BME280;47007;49.252;8.904;2023-02-19T03:58:15;100211.38;;;8.80;100.00
10638;BME280;47007;49.252;8.904;2023-02-19T04:01:15;100226.22;;;8.65;100.00
10638;BME280;47007;49.252;8.904;2023-02-19T04:02:09;100229.16;;;8.62;100.00
10638;BME280;47007;49.252;8.904;2023-02-19T04:02:57;100202.38;;;8.49;100.00
10638;BME280;47007;49.252;8.904;2023-02-19T04:03:47;100225.03;;;8.59;100.00
10638;BME280;47007;49.252;8.904;2023-02-19T04:04:42;100234.09;;;8.57;100.00
10638;BME280;47007;49.252;8.904;2023-02-19T04:05:28;100225.34;;;8.56;100.00
10638;BME280;47007;49.252;8.904;2023-02-19T04:06:16;100220.56;;;8.52;100.00
10638;BME280;47007;49.252;8.904;2023-02-19T04:07:01;100217.91;;;8.52;100.00
10638;BME280;47007;49.252;8.904;2023-02-19T04:07:49;100218.22;;;8.49;100.00
10638;BME280;47007;49.252;8.904;2023-02-19T04:08:38;100226.47;;;8.54;100.00
10638;BME280;47007;49.252;8.904;2023-02-19T04:09:26;100226.00;;;8.50;100.00
10638;BME280;47007;49.252;8.904;2023-02-19T04:10:17;100231.44;;;8.49;100.00
10638;BME280;47007;49.252;8.904;2023-02-19T04:11:03;100222.47;;;8.42;100.00
10638;BME280;47007;49.252;8.904;2023-02-19T04:11:50;100226.31;;;8.47;100.00
10638;BME280;47007;49.252;8.904;2023-02-19T04:12:36;100210.78;;;8.44;100.00
10638;BME280;47007;49.252;8.904;2023-02-19T04:13:24;100233.78;;;8.60;100.00
10638;BME280;47007;49.252;8.904;2023-02-19T04:14:23;100209.16;;;8.51;100.00
10638;BME280;47007;49.252;8.904;2023-02-19T04:15:11;100235.91;;;8.56;100.00
10638;BME280;47007;49.252;8.904;2023-02-19T04:15:57;100231.75;;;8.54;100.00
10638;BME280;47007;49.252;8.904;2023-02-19T04:16:46;100220.63;;;8.34;100.00
10638;BME280;47007;49.252;8.904;2023-02-19T04:17:36;100239.66;;;8.46;100.00
10638;BME280;47007;49.252;8.904;2023-02-19T04:18:23;100236.66;;;8.41;100.00
10638;BME280;47007;49.252;8.904;2023-02-19T04:19:11;100239.03;;;8.52;100.00
10638;BME280;47007;49.252;8.904;2023-02-19T04:19:56;100228.78;;;8.49;100.00
10638;BME280;47007;49.252;8.904;2023-02-19T04:20:41;100210.44;;;8.39;100.00
10638;BME280;47007;49.252;8.904;2023-02-19T04:21:25;100245.16;;;8.52;100.00
10638;BME280;47007;49.252;8.904;2023-02-19T04:22:10;100235.88;;;8.40;100.00
10638;BME280;47007;49.252;8.904;2023-02-19T04:22:52;100224.78;;;8.37;100.00
10638;BME280;47007;49.252;8.904;2023-02-19T04:23:41;100242.47;;;8.44;100.00
10638;BME280;47007;49.252;8.904;2023-02-19T04:24:28;100245.16;;;8.52;100.00
10638;BME280;47007;49.252;8.904;2023-02-19T04:25:11;100233.91;;;8.50;100.00
10638;BME280;47007;49.252;8.904;2023-02-19T04:25:58;100236.94;;;8.63;100.00
10638;BME280;47007;49.252;8.904;2023-02-19T04:26:41;100229.63;;;8.57;100.00
10638;BME280;47007;49.252;8.904;2023-02-19T04:27:24;100231.44;;;8.57;100.00
10638;BME280;47007;49.252;8.904;2023-02-19T04:28:06;100233.63;;;8.61;100.00
10638;BME280;47007;49.252;8.904;2023-02-19T04:28:48;100246.03;;;8.69;100.00
10638;BME280;47007;49.252;8.904;2023-02-19T04:29:30;100240.72;;;8.61;100.00
10638;BME280;47007;49.252;8.904;2023-02-19T04:30:13;100255.75;;;8.69;100.00